Map

Track Data

SID SEASON NUMBER BASIN SUBBASIN NAME ISO_TIME NATURE LAT LON WMO_WIND WMO_PRES WMO_AGENCY TRACK_TYPE DIST2LAND LANDFALL IFLAG USA_AGENCY USA_ATCF_ID USA_LAT USA_LON USA_RECORD USA_STATUS USA_WIND USA_PRES USA_SSHS USA_R34_NE USA_R34_SE USA_R34_SW USA_R34_NW USA_R50_NE USA_R50_SE USA_R50_SW USA_R50_NW USA_R64_NE USA_R64_SE USA_R64_SW USA_R64_NW USA_POCI USA_ROCI USA_RMW USA_EYE TOKYO_LAT TOKYO_LON TOKYO_GRADE TOKYO_WIND TOKYO_PRES TOKYO_R50_DIR TOKYO_R50_LONG TOKYO_R50_SHORT TOKYO_R30_DIR TOKYO_R30_LONG TOKYO_R30_SHORT TOKYO_LAND CMA_LAT CMA_LON CMA_CAT CMA_WIND CMA_PRES HKO_LAT HKO_LON HKO_CAT HKO_WIND HKO_PRES NEWDELHI_LAT NEWDELHI_LON NEWDELHI_GRADE NEWDELHI_WIND NEWDELHI_PRES NEWDELHI_CI NEWDELHI_DP NEWDELHI_POCI REUNION_LAT REUNION_LON REUNION_TYPE REUNION_WIND REUNION_PRES REUNION_TNUM REUNION_CI REUNION_RMW REUNION_R34_NE REUNION_R34_SE REUNION_R34_SW REUNION_R34_NW REUNION_R50_NE REUNION_R50_SE REUNION_R50_SW REUNION_R50_NW REUNION_R64_NE REUNION_R64_SE REUNION_R64_SW REUNION_R64_NW BOM_LAT BOM_LON BOM_TYPE BOM_WIND BOM_PRES BOM_TNUM BOM_CI BOM_RMW BOM_R34_NE BOM_R34_SE BOM_R34_SW BOM_R34_NW BOM_R50_NE BOM_R50_SE BOM_R50_SW BOM_R50_NW BOM_R64_NE BOM_R64_SE BOM_R64_SW BOM_R64_NW BOM_ROCI BOM_POCI BOM_EYE BOM_POS_METHOD BOM_PRES_METHOD NADI_LAT NADI_LON NADI_CAT NADI_WIND NADI_PRES WELLINGTON_LAT WELLINGTON_LON WELLINGTON_WIND WELLINGTON_PRES DS824_LAT DS824_LON DS824_STAGE DS824_WIND DS824_PRES TD9636_LAT TD9636_LON TD9636_STAGE TD9636_WIND TD9636_PRES TD9635_LAT TD9635_LON TD9635_WIND TD9635_PRES TD9635_ROCI NEUMANN_LAT NEUMANN_LON NEUMANN_CLASS NEUMANN_WIND NEUMANN_PRES MLC_LAT MLC_LON MLC_CLASS MLC_WIND MLC_PRES USA_GUST BOM_GUST BOM_GUST_PER REUNION_GUST REUNION_GUST_PER USA_SEAHGT USA_SEARAD_NE USA_SEARAD_SE USA_SEARAD_SW USA_SEARAD_NW STORM_SPEED STORM_DIR
1869251N18326 1869 17 NA NA NOT_NAMED 1869-09-07 12:00:00 TS 18.3000 -33.7000 main 1760 1760 _____________O -1 18.3000 -33.7000 TD 30 8 302
1869251N18326 1869 17 NA NA NOT_NAMED 1869-09-07 15:00:00 TS 18.5127 -34.0622 main 1797 1795 _____________P -1 18.5127 -34.0622 TD 30 8 301
1869251N18326 1869 17 NA NA NOT_NAMED 1869-09-07 18:00:00 TS 18.7000 -34.4000 main 1824 1824 _____________O -1 18.7000 -34.4000 TD 30 7 299
1869251N18326 1869 17 NA NA NOT_NAMED 1869-09-07 21:00:00 TS 18.8499 -34.7002 main 1853 1851 _____________P -1 18.8499 -34.7002 TD 30 6 298
1869251N18326 1869 17 NA NA NOT_NAMED 1869-09-08 00:00:00 TS 19.0000 -35.0000 main 1881 1881 _____________O -1 19.0000 -35.0000 TD 30 7 300
1869251N18326 1869 17 NA NA NOT_NAMED 1869-09-08 03:00:00 TS 19.2000 -35.3499 main 1908 1908 _____________P -1 19.2000 -35.3499 TD 30 8 301
1869251N18326 1869 17 NA NA NOT_NAMED 1869-09-08 06:00:00 TS 19.4000 -35.7000 main 1947 1947 _____________O -1 19.4000 -35.7000 TD 30 7 300
1869251N18326 1869 17 NA NA NOT_NAMED 1869-09-08 09:00:00 TS 19.5499 -36.0002 main 1977 1975 _____________P -1 19.5499 -36.0002 TD 32 6 298
1869251N18326 1869 17 NA NA NOT_NAMED 1869-09-08 12:00:00 TS 19.7000 -36.3000 main 2005 2005 _____________O -1 19.7000 -36.3000 TS 35 7 300
1869251N18326 1869 17 NA NA NOT_NAMED 1869-09-08 15:00:00 TS 19.9000 -36.6499 main 2034 2034 _____________P -1 19.9000 -36.6499 TS 35 8 301
1869251N18326 1869 17 NA NA NOT_NAMED 1869-09-08 18:00:00 TS 20.1000 -37.0000 main 2073 2073 _____________O -1 20.1000 -37.0000 TS 35 7 300
1869251N18326 1869 17 NA NA NOT_NAMED 1869-09-08 21:00:00 TS 20.2499 -37.3077 main 2103 2102 _____________P -1 20.2499 -37.3077 TS 35 6 298
1869251N18326 1869 17 NA NA NOT_NAMED 1869-09-09 00:00:00 TS 20.4000 -37.6000 main 2132 2132 _____________O -1 20.4000 -37.6000 TS 35 7 302
1869251N18326 1869 17 NA NA NOT_NAMED 1869-09-09 03:00:00 TS 20.5999 -37.9000 main 2161 2161 _____________P -1 20.5999 -37.9000 TS 35 7 305
1869251N18326 1869 17 NA NA NOT_NAMED 1869-09-09 06:00:00 TS 20.8000 -38.2000 main 2191 2191 _____________O -1 20.8000 -38.2000 TS 35 7 302
1869251N18326 1869 17 NA NA NOT_NAMED 1869-09-09 09:00:00 TS 20.9499 -38.5001 main 2221 2221 _____________P -1 20.9499 -38.5001 TS 37 6 298
1869251N18326 1869 17 NA NA NOT_NAMED 1869-09-09 12:00:00 TS 21.1000 -38.8000 main 2251 2251 _____________O -1 21.1000 -38.8000 TS 40 7 302
1869251N18326 1869 17 NA NA NOT_NAMED 1869-09-09 15:00:00 TS 21.2999 -39.1000 main 2281 2281 _____________P -1 21.2999 -39.1000 TS 40 7 306
1869251N18326 1869 17 NA NA NOT_NAMED 1869-09-09 18:00:00 TS 21.5000 -39.4000 main 2311 2302 _____________O -1 21.5000 -39.4000 TS 40 7 302
1869251N18326 1869 17 NA NA NOT_NAMED 1869-09-09 21:00:00 TS 21.6500 -39.7076 main 2302 2298 _____________P -1 21.6500 -39.7076 TS 40 6 298
1869251N18326 1869 17 NA NA NOT_NAMED 1869-09-10 00:00:00 TS 21.8000 -40.0000 main 2301 2294 _____________O -1 21.8000 -40.0000 TS 40 6 303
1869251N18326 1869 17 NA NA NOT_NAMED 1869-09-10 03:00:00 TS 21.9925 -40.2650 main 2300 2300 _____________P -1 21.9925 -40.2650 TS 42 6 311
1869251N18326 1869 17 NA NA NOT_NAMED 1869-09-10 06:00:00 TS 22.2000 -40.5000 main 2305 2302 _____________O -1 22.2000 -40.5000 TS 45 6 315
1869251N18326 1869 17 NA NA NOT_NAMED 1869-09-10 09:00:00 TS 22.3924 -40.7002 main 2311 2306 _____________P -1 22.3924 -40.7002 TS 45 5 317
1869251N18326 1869 17 NA NA NOT_NAMED 1869-09-10 12:00:00 TS 22.6000 -40.9000 main 2318 2318 _____________O -1 22.6000 -40.9000 TS 45 6 318
1869251N18326 1869 17 NA NA NOT_NAMED 1869-09-10 15:00:00 TS 22.8500 -41.1499 main 2334 2329 _____________P -1 22.8500 -41.1499 TS 45 7 317
1869251N18326 1869 17 NA NA NOT_NAMED 1869-09-10 18:00:00 TS 23.1000 -41.4000 main 2336 2335 _____________O -1 23.1000 -41.4000 TS 45 6 316
1869251N18326 1869 17 NA NA NOT_NAMED 1869-09-10 21:00:00 TS 23.2924 -41.6077 main 2344 2339 _____________P -1 23.2924 -41.6077 TS 47 5 318
1869251N18326 1869 17 NA NA NOT_NAMED 1869-09-11 00:00:00 TS 23.5000 -41.8000 main 2352 2352 _____________O -1 23.5000 -41.8000 TS 50 6 324
1869251N18326 1869 17 NA NA NOT_NAMED 1869-09-11 03:00:00 TS 23.7925 -42.0074 main 2371 2371 _____________P -1 23.7925 -42.0074 TS 50 7 329
1869251N18326 1869 17 NA NA NOT_NAMED 1869-09-11 06:00:00 TS 24.1000 -42.2000 main 2390 2390 _____________O -1 24.1000 -42.2000 TS 50 7 330
1869251N18326 1869 17 NA NA NOT_NAMED 1869-09-11 09:00:00 TS 24.3575 -42.3651 main 2409 2409 _____________P -1 24.3575 -42.3651 TS 50 6 331
1869251N18326 1869 17 NA NA NOT_NAMED 1869-09-11 12:00:00 TS 24.6000 -42.5000 main 2424 2424 _____________O -1 24.6000 -42.5000 TS 50 5 335
1869251N18326 1869 17 NA NA NOT_NAMED 1869-09-11 15:00:00 TS 24.8500 -42.6150 main 2439 2439 _____________P -1 24.8500 -42.6150 TS 50 5 340
1869251N18326 1869 17 NA NA NOT_NAMED 1869-09-11 18:00:00 TS 25.1000 -42.7000 main 2463 2463 _____________O -1 25.1000 -42.7000 TS 50 5 345
1869251N18326 1869 17 NA NA NOT_NAMED 1869-09-11 21:00:00 TS 25.3275 -42.7502 main 2471 2471 _____________P -1 25.3275 -42.7502 TS 50 5 350
1869251N18326 1869 17 NA NA NOT_NAMED 1869-09-12 00:00:00 TS 25.6000 -42.8000 main 2479 2467 _____________O -1 25.6000 -42.8000 TS 50 7 348
1869251N18326 1869 17 NA NA NOT_NAMED 1869-09-12 03:00:00 TS 25.9850 -42.9073 main 2467 2422 _____________P -1 25.9850 -42.9073 TS 50 8 347
1869251N18326 1869 17 NA NA NOT_NAMED 1869-09-12 06:00:00 TS 26.4000 -43.0000 main 2422 2390 _____________O -1 26.4000 -43.0000 TS 50 8 353
1869251N18326 1869 17 NA NA NOT_NAMED 1869-09-12 09:00:00 TS 26.7500 -43.0151 main 2390 2348 _____________P -1 26.7500 -43.0151 TS 52 7 0
1869251N18326 1869 17 NA NA NOT_NAMED 1869-09-12 12:00:00 TS 27.1000 -43.0000 main 2348 2306 _____________O -1 27.1000 -43.0000 TS 55 8 0
1869251N18326 1869 17 NA NA NOT_NAMED 1869-09-12 15:00:00 TS 27.5000 -43.0000 main 2306 2264 _____________P -1 27.5000 -43.0000 TS 55 8 1
1869251N18326 1869 17 NA NA NOT_NAMED 1869-09-12 18:00:00 TS 27.9000 -43.0000 main 2264 2233 _____________O -1 27.9000 -43.0000 TS 55 7 0
1869251N18326 1869 17 NA NA NOT_NAMED 1869-09-12 21:00:00 TS 28.2425 -43.0000 main 2233 2191 _____________P -1 28.2425 -43.0000 TS 57 7 0
1869251N18326 1869 17 NA NA NOT_NAMED 1869-09-13 00:00:00 TS 28.6000 -43.0000 main 2191 2149 _____________O -1 28.6000 -43.0000 TS 60 8 0
1869251N18326 1869 17 NA NA NOT_NAMED 1869-09-13 03:00:00 TS 29.0350 -43.0074 main 2149 2097 _____________P -1 29.0350 -43.0074 TS 60 9 0
1869251N18326 1869 17 NA NA NOT_NAMED 1869-09-13 06:00:00 TS 29.5000 -43.0000 main 2097 2056 _____________O -1 29.5000 -43.0000 TS 60 9 4
1869251N18326 1869 17 NA NA NOT_NAMED 1869-09-13 09:00:00 TS 29.9500 -42.9502 main 2046 2008 _____________P -1 29.9500 -42.9502 TS 60 9 5
1869251N18326 1869 17 NA NA NOT_NAMED 1869-09-13 12:00:00 TS 30.4000 -42.9000 main 2008 1967 _____________O -1 30.4000 -42.9000 TS 60 9 2
1869251N18326 1869 17 NA NA NOT_NAMED 1869-09-13 15:00:00 TS 30.8500 -42.8998 main 1967 1917 _____________P -1 30.8500 -42.8998 TS 62 9 0
1869251N18326 1869 17 NA NA NOT_NAMED 1869-09-13 18:00:00 TS 31.3000 -42.9000 main 1917 1876 _____________O -1 31.3000 -42.9000 HU 65 9 0
1869251N18326 1869 17 NA NA NOT_NAMED 1869-09-13 21:00:00 TS 31.7500 -42.8723 main 1876 1830 _____________P -1 31.7500 -42.8723 HU 65 9 5
1869251N18326 1869 17 NA NA NOT_NAMED 1869-09-14 00:00:00 TS 32.2000 -42.8000 main 1830 1794 _____________O -1 32.2000 -42.8000 HU 65 9 12
1869251N18326 1869 17 NA NA NOT_NAMED 1869-09-14 03:00:00 TS 32.6500 -42.6577 main 1784 1753 _____________P -1 32.6500 -42.6577 HU 65 9 16
1869251N18326 1869 17 NA NA NOT_NAMED 1869-09-14 06:00:00 TS 33.1000 -42.5000 main 1753 1718 _____________O -1 33.1000 -42.5000 HU 65 9 13
1869251N18326 1869 17 NA NA NOT_NAMED 1869-09-14 09:00:00 TS 33.5574 -42.3997 main 1708 1674 _____________P -1 33.5574 -42.3997 HU 65 9 10
1869251N18326 1869 17 NA NA NOT_NAMED 1869-09-14 12:00:00 TS 34.0000 -42.3000 main 1674 1640 _____________O -1 34.0000 -42.3000 HU 65 9 13
1869251N18326 1869 17 NA NA NOT_NAMED 1869-09-14 15:00:00 TS 34.4075 -42.1574 main 1640 1611 _____________P -1 34.4075 -42.1574 HU 65 8 17
1869251N18326 1869 17 NA NA NOT_NAMED 1869-09-14 18:00:00 TS 34.8000 -42.0000 main 1611 1579 _____________O -1 34.8000 -42.0000 HU 65 8 18
1869251N18326 1869 17 NA NA NOT_NAMED 1869-09-14 21:00:00 TS 35.1924 -41.8572 main 1579 1552 _____________P -1 35.1924 -41.8572 HU 65 8 17
1869251N18326 1869 17 NA NA NOT_NAMED 1869-09-15 00:00:00 TS 35.6000 -41.7000 main 1552 1526 _____________O -1 35.6000 -41.7000 HU 65 9 19
1869251N18326 1869 17 NA NA NOT_NAMED 1869-09-15 03:00:00 TS 36.0425 -41.5074 main 1526 1492 _____________P -1 36.0425 -41.5074 HU 65 10 20
1869251N18326 1869 17 NA NA NOT_NAMED 1869-09-15 06:00:00 TS 36.5000 -41.3000 main 1492 1462 _____________O -1 36.5000 -41.3000 HU 65 10 19
1869251N18326 1869 17 NA NA NOT_NAMED 1869-09-15 09:00:00 TS 36.9499 -41.1145 main 1468 1436 _____________P -1 36.9499 -41.1145 HU 65 10 19
1869251N18326 1869 17 NA NA NOT_NAMED 1869-09-15 12:00:00 TS 37.4000 -40.9000 main 1436 1414 _____________O -1 37.4000 -40.9000 HU 65 10 24
1869251N18326 1869 17 NA NA NOT_NAMED 1869-09-15 15:00:00 TS 37.8500 -40.6149 main 1412 1398 _____________P -1 37.8500 -40.6149 HU 65 10 28
1869251N18326 1869 17 NA NA NOT_NAMED 1869-09-15 18:00:00 TS 38.3000 -40.3000 main 1398 1385 _____________O -1 38.3000 -40.3000 HU 65 10 29
1869251N18326 1869 17 NA NA NOT_NAMED 1869-09-15 21:00:00 TS 38.7049 -40.0063 main 1385 1366 _____________P -1 38.7049 -40.0063 HU 65 10 27
1869251N18326 1869 17 NA NA NOT_NAMED 1869-09-16 00:00:00 TS 39.2000 -39.7000 main 1366 1327 _____________O -1 39.2000 -39.7000 HU 65 992 13 20
1869251N18326 1869 17 NA NA NOT_NAMED 1869-09-16 03:00:00 TS 39.9036 -39.4517 main 1327 1306 _____________P -1 39.9036 -39.4517 HU 65 16 20
1869251N18326 1869 17 NA NA NOT_NAMED 1869-09-16 06:00:00 TS 40.7000 -39.0000 main 1306 1300 _____________O -1 40.7000 -39.0000 HU 65 18 32
1869251N18326 1869 17 NA NA NOT_NAMED 1869-09-16 09:00:00 TS 41.4481 -38.1923 main 1318 1318 _____________P -1 41.4481 -38.1923 HU 65 21 45
1869251N18326 1869 17 NA NA NOT_NAMED 1869-09-16 12:00:00 TS 42.2000 -37.0000 main 1355 1355 _____________O -1 42.2000 -37.0000 HU 65 25 53
1869251N18326 1869 17 NA NA NOT_NAMED 1869-09-16 15:00:00 TS 42.9507 -35.4611 main 1420 1420 _____________P -1 42.9507 -35.4611 HU 62 28 58
1869251N18326 1869 17 NA NA NOT_NAMED 1869-09-16 18:00:00 TS 43.7000 -33.7000 main 1519 1519 _____________O -1 43.7000 -33.7000 TS 60 29 62
1869251N18326 1869 17 NA NA NOT_NAMED 1869-09-16 21:00:00 TS 44.3460 -31.8884 main 1629 1629 _____________P -1 44.3460 -31.8884 TS 57 29 59
1869251N18326 1869 17 NA NA NOT_NAMED 1869-09-17 00:00:00 TS 45.2000 -30.2000 main 1619 1457 _____________O -1 45.2000 -30.2000 TS 55 31 44
1869251N18326 1869 17 NA NA NOT_NAMED 1869-09-17 03:00:00 TS 46.5412 -28.8295 main 1450 1299 _____________P -1 46.5412 -28.8295 TS 52 34 32
1869251N18326 1869 17 NA NA NOT_NAMED 1869-09-17 06:00:00 TS 48.1000 -27.6000 main 1288 1146 _____________O -1 48.1000 -27.6000 TS 50 35 29
1869251N18326 1869 17 NA NA NOT_NAMED 1869-09-17 09:00:00 TS 49.5888 -26.3364 main 1135 1012 _____________P -1 49.5888 -26.3364 TS 47 33 30
1869251N18326 1869 17 NA NA NOT_NAMED 1869-09-17 12:00:00 ET 51.0000 -25.0000 main 1003 _____________O -1 51.0000 -25.0000 EX 45 33 31

About IBTrACS Database

This database is a web-friendly format of International Best Track Archive for Climate Stewardship (IBTrACS), a global best track data archive curated by NOAA dating back to 1842.

Updated: 2021-10-27